»·PEaware :: N4835G KSAC-KSBP

N4835G :: KSAC-KSBP

FLIGHT INFORMATION

Flight Status: Arrived
Operator: Privately registered:
United States
More flights under this callsign
Pilot: Brandon M. (32286)
Aircraft: CESSNA 172 SKYHAWK
(C172)
More flights by this aircraft type
Origin: KSAC Sacramento Executive
United States
Destination: KSBP San Luis Co Regl
United States
More flights between these airports :: More routes between these airports
Route: C83 KRHV KCVH KPRB
File this flight plan on PilotEdge
Remarks:
Altitude:
(Current/Filed)
5,500ft
Speed:
(Current/Filed)
110kts
Departed: 22-Feb-21 07:08 PM
Arrived: 22-Feb-21 09:08 PM
Distance/Time
Traveled:
201nm/2:00
Distance/Time
To Go:
Arrived

Flight Plot

Page will automatically refresh every two minutes.

Flight plan parsing failed; only flown route is shown


Map Options




Map Legend


Flown Route
Filed Route
Departure Airport
Arrival Airport
Navaid (VOR, NDB)
Fix

Horizontal Profiles

Position Reports

Time Latitude Longitude Heading Altitude Ground
Speed
22-Feb-21 18:47 38.512988 -121.497558 206 22ft 0kts
22-Feb-21 18:48 38.512988 -121.497558 206 22ft 0kts
22-Feb-21 18:49 38.512988 -121.497558 206 22ft 0kts
22-Feb-21 18:50 38.512988 -121.497558 206 22ft 0kts
22-Feb-21 18:51 38.512988 -121.497558 206 22ft 0kts
22-Feb-21 18:52 38.512988 -121.497558 206 22ft 0kts
22-Feb-21 18:53 38.512988 -121.497558 206 22ft 0kts
22-Feb-21 18:54 38.512988 -121.497558 206 22ft 0kts
22-Feb-21 18:55 38.512988 -121.497558 206 22ft 0kts
22-Feb-21 18:56 38.512988 -121.497558 206 22ft 0kts
22-Feb-21 18:58 38.512988 -121.497558 206 22ft 0kts
22-Feb-21 18:59 38.512988 -121.497558 206 22ft 0kts
22-Feb-21 19:00 38.512988 -121.497558 206 22ft 0kts
22-Feb-21 19:01 38.512920 -121.497314 40 23ft 5kts
22-Feb-21 19:02 38.514480 -121.494724 31 25ft 0kts
22-Feb-21 19:03 38.514400 -121.494733 203 25ft 0kts
22-Feb-21 19:04 38.515997 -121.493481 35 25ft 20kts
22-Feb-21 19:05 38.519355 -121.490402 106 26ft 0kts
22-Feb-21 19:06 38.519354 -121.490401 107 26ft 0kts
22-Feb-21 19:07 38.519017 -121.489552 139 26ft 5kts
22-Feb-21 19:08 38.508541 -121.498281 215 312ft 78kts
22-Feb-21 19:09 38.489050 -121.509602 195 1137ft 83kts
22-Feb-21 19:10 38.465579 -121.509555 177 1944ft 86kts
22-Feb-21 19:11 38.441544 -121.511680 188 2709ft 88kts
22-Feb-21 19:12 38.416954 -121.516042 188 3479ft 91kts
22-Feb-21 19:13 38.391915 -121.520390 188 4257ft 92kts
22-Feb-21 19:14 38.366229 -121.524850 188 4987ft 94kts
22-Feb-21 19:15 38.340519 -121.529384 188 5511ft 92kts
22-Feb-21 19:16 38.310457 -121.534787 187 5496ft 119kts
22-Feb-21 19:17 38.278714 -121.540588 187 5508ft 112kts
22-Feb-21 19:18 38.247341 -121.546496 187 5509ft 115kts
22-Feb-21 19:19 38.215352 -121.552666 187 5499ft 116kts
22-Feb-21 19:20 38.183454 -121.558807 187 5498ft 116kts
22-Feb-21 19:21 38.151491 -121.564937 187 5498ft 116kts
22-Feb-21 19:21 38.124999 -121.569999 186 5497ft 116kts
22-Feb-21 19:22 38.093043 -121.576084 186 5497ft 116kts
22-Feb-21 19:24 38.055729 -121.583130 186 5496ft 116kts
22-Feb-21 19:25 38.023795 -121.589002 186 5495ft 116kts
22-Feb-21 19:26 37.991651 -121.594735 186 5494ft 116kts
22-Feb-21 19:26 37.964879 -121.599357 186 5493ft 117kts
22-Feb-21 19:27 37.932684 -121.604719 186 5501ft 117kts
22-Feb-21 19:28 37.900258 -121.609900 186 5501ft 117kts
22-Feb-21 19:30 37.862964 -121.615765 185 5498ft 117kts
22-Feb-21 19:31 37.830581 -121.620801 185 5499ft 117kts
22-Feb-21 19:31 37.803960 -121.626852 195 5499ft 117kts
22-Feb-21 19:32 37.772579 -121.638434 196 5499ft 117kts
22-Feb-21 19:33 37.741331 -121.650578 195 5499ft 118kts
22-Feb-21 19:34 37.709932 -121.662668 195 5497ft 117kts
22-Feb-21 19:35 37.678770 -121.674732 195 5498ft 117kts
22-Feb-21 19:36 37.647617 -121.686930 195 5498ft 117kts
22-Feb-21 19:37 37.616486 -121.699055 195 5498ft 117kts
22-Feb-21 19:38 37.585239 -121.711088 195 5498ft 117kts
22-Feb-21 19:39 37.553934 -121.722692 195 5496ft 117kts
22-Feb-21 19:40 37.522566 -121.733808 194 5494ft 117kts
22-Feb-21 19:41 37.491258 -121.744813 196 5493ft 117kts
22-Feb-21 19:42 37.460104 -121.756293 196 5491ft 116kts
22-Feb-21 19:43 37.429019 -121.767329 196 5490ft 116kts
22-Feb-21 19:44 37.397758 -121.777791 195 5490ft 116kts
22-Feb-21 19:45 37.366520 -121.787857 195 5497ft 115kts
22-Feb-21 19:46 37.335739 -121.797653 195 5499ft 116kts
22-Feb-21 19:47 37.305346 -121.794575 143 5500ft 115kts
22-Feb-21 19:48 37.279036 -121.771840 142 5499ft 115kts
22-Feb-21 19:49 37.252797 -121.748723 142 5499ft 115kts
22-Feb-21 19:50 37.227326 -121.724071 140 5500ft 116kts
22-Feb-21 19:51 37.202067 -121.698680 140 5500ft 116kts
22-Feb-21 19:52 37.177168 -121.672840 140 5500ft 116kts
22-Feb-21 19:53 37.152382 -121.646486 140 5501ft 117kts
22-Feb-21 19:54 37.127748 -121.619869 139 5502ft 117kts
22-Feb-21 19:55 37.103030 -121.593035 139 5503ft 117kts
22-Feb-21 19:56 37.078138 -121.566580 139 5504ft 117kts
22-Feb-21 19:57 37.053071 -121.540493 139 5505ft 117kts
22-Feb-21 19:58 37.027965 -121.514805 139 5498ft 116kts
22-Feb-21 19:59 37.002804 -121.489374 139 5498ft 115kts
22-Feb-21 20:00 36.977977 -121.464478 138 5498ft 114kts
22-Feb-21 20:01 36.953281 -121.439786 138 5499ft 113kts
22-Feb-21 20:02 36.928765 -121.415261 138 5499ft 112kts
22-Feb-21 20:03 36.904294 -121.390672 138 5499ft 112kts
22-Feb-21 20:04 36.880248 -121.366396 138 5498ft 112kts
22-Feb-21 20:05 36.855718 -121.342154 141 5498ft 112kts
22-Feb-21 20:06 36.830547 -121.319160 144 5498ft 112kts
22-Feb-21 20:07 36.803608 -121.299126 147 5498ft 113kts
22-Feb-21 20:08 36.775820 -121.280591 151 5498ft 113kts
22-Feb-21 20:09 36.747814 -121.262751 151 5497ft 113kts
22-Feb-21 20:10 36.719422 -121.245583 152 5497ft 113kts
22-Feb-21 20:11 36.690863 -121.228670 152 5497ft 113kts
22-Feb-21 20:12 36.662438 -121.211750 152 5498ft 113kts
22-Feb-21 20:13 36.634106 -121.194814 152 5498ft 113kts
22-Feb-21 20:14 36.605457 -121.178214 154 5495ft 113kts
22-Feb-21 20:15 36.576426 -121.162648 154 5493ft 114kts
22-Feb-21 20:16 36.547312 -121.146994 154 5491ft 114kts
22-Feb-21 20:17 36.518293 -121.131364 154 5489ft 114kts
22-Feb-21 20:18 36.489267 -121.115720 154 5488ft 114kts
22-Feb-21 20:19 36.460264 -121.100129 154 5487ft 113kts
22-Feb-21 20:20 36.431195 -121.084716 153 5487ft 113kts
22-Feb-21 20:21 36.402381 -121.069530 153 5486ft 112kts
22-Feb-21 20:22 36.373760 -121.054815 153 5485ft 111kts
22-Feb-21 20:23 36.345437 -121.040432 153 5483ft 109kts
22-Feb-21 20:24 36.317546 -121.026339 153 5481ft 107kts
22-Feb-21 20:25 36.290199 -121.012431 153 5480ft 105kts
22-Feb-21 20:26 36.263287 -120.998541 153 5480ft 104kts
22-Feb-21 20:27 36.236671 -120.984528 153 5480ft 103kts
22-Feb-21 20:28 36.210573 -120.970445 152 5480ft 102kts
22-Feb-21 20:29 36.184846 -120.956160 152 5480ft 101kts
22-Feb-21 20:30 36.159648 -120.941965 152 5507ft 99kts
22-Feb-21 20:31 36.134451 -120.927661 152 5507ft 100kts
22-Feb-21 20:32 36.109139 -120.913188 152 5507ft 100kts
22-Feb-21 20:33 36.083866 -120.898639 152 5507ft 100kts
22-Feb-21 20:34 36.058559 -120.883865 151 5515ft 101kts
22-Feb-21 20:35 36.032925 -120.868188 151 5517ft 104kts
22-Feb-21 20:36 36.007925 -120.849940 146 5509ft 105kts
22-Feb-21 20:37 35.983062 -120.830835 146 5498ft 105kts
22-Feb-21 20:38 35.958330 -120.811730 146 5498ft 105kts
22-Feb-21 20:39 35.933569 -120.792499 146 5498ft 104kts
22-Feb-21 20:40 35.908963 -120.773285 145 5498ft 104kts
22-Feb-21 20:41 35.885038 -120.754502 145 5499ft 105kts
22-Feb-21 20:42 35.860526 -120.735154 145 5499ft 105kts
22-Feb-21 20:43 35.835968 -120.715663 145 5499ft 105kts
22-Feb-21 20:44 35.811449 -120.696099 145 5499ft 105kts
22-Feb-21 20:45 35.785597 -120.679243 152 5499ft 105kts
22-Feb-21 20:46 35.759186 -120.663520 152 5499ft 105kts
22-Feb-21 20:47 35.732956 -120.647807 152 5499ft 105kts
22-Feb-21 20:48 35.706668 -120.631962 151 5499ft 105kts
22-Feb-21 20:49 35.680190 -120.616583 154 5498ft 105kts
22-Feb-21 20:50 35.650825 -120.615976 184 5498ft 107kts
22-Feb-21 20:51 35.621096 -120.620554 184 5498ft 107kts
22-Feb-21 20:52 35.591313 -120.624425 182 5498ft 107kts
22-Feb-21 20:53 35.561569 -120.626157 179 5498ft 107kts
22-Feb-21 20:54 35.531739 -120.627340 179 5498ft 107kts
22-Feb-21 20:55 35.502018 -120.628388 178 5496ft 107kts
22-Feb-21 20:56 35.472380 -120.629034 178 5491ft 106kts
22-Feb-21 20:57 35.442482 -120.629662 180 5413ft 109kts
22-Feb-21 20:58 35.412457 -120.634169 189 5154ft 107kts
22-Feb-21 20:59 35.382706 -120.641063 191 4637ft 108kts
22-Feb-21 21:00 35.352626 -120.647886 190 4051ft 114kts
22-Feb-21 21:01 35.320436 -120.652958 186 3239ft 117kts
22-Feb-21 21:02 35.287072 -120.653480 177 2203ft 121kts
22-Feb-21 21:03 35.255161 -120.645153 158 1275ft 110kts
22-Feb-21 21:04 35.240861 -120.617010 65 1190ft 93kts
22-Feb-21 21:05 35.225385 -120.613062 233 1230ft 93kts
22-Feb-21 21:06 35.233442 -120.634202 304 219ft 49kts
22-Feb-21 21:07 35.236300 -120.636331 350 216ft 11kts
22-Feb-21 21:08 35.236847 -120.636613 116 216ft 0kts
22-Feb-21 21:09 35.236847 -120.636613 116 216ft 0kts
22-Feb-21 21:10 35.236847 -120.636613 116 216ft 0kts

Navigation Log

Ident Type
Flight plan parsing failed, navigation log unavailable